sensor_id;sensor_type;location;lat;lon;timestamp;temperature;humidity
65072;DHT22;51663;52.310;17.016;2023-02-03T00:01:09;27.00;20.90
65072;DHT22;51663;52.310;17.016;2023-02-03T00:04:11;27.00;20.80
65072;DHT22;51663;52.310;17.016;2023-02-03T00:07:14;27.10;20.90
65072;DHT22;51663;52.310;17.016;2023-02-03T00:10:17;27.10;20.80
65072;DHT22;51663;52.310;17.016;2023-02-03T00:13:22;27.20;20.80
65072;DHT22;51663;52.310;17.016;2023-02-03T00:16:27;27.20;20.90
65072;DHT22;51663;52.310;17.016;2023-02-03T00:19:30;27.30;20.80
65072;DHT22;51663;52.310;17.016;2023-02-03T00:22:32;27.30;20.80
65072;DHT22;51663;52.310;17.016;2023-02-03T00:25:34;27.40;20.80
65072;DHT22;51663;52.310;17.016;2023-02-03T00:28:37;27.40;20.70
65072;DHT22;51663;52.310;17.016;2023-02-03T00:31:39;27.40;20.70
65072;DHT22;51663;52.310;17.016;2023-02-03T00:34:41;27.20;20.80
65072;DHT22;51663;52.310;17.016;2023-02-03T00:37:49;27.00;21.00
65072;DHT22;51663;52.310;17.016;2023-02-03T00:40:54;27.10;21.00
65072;DHT22;51663;52.310;17.016;2023-02-03T00:43:56;27.20;20.90
65072;DHT22;51663;52.310;17.016;2023-02-03T00:46:59;27.20;20.90
65072;DHT22;51663;52.310;17.016;2023-02-03T00:50:01;27.30;20.80
65072;DHT22;51663;52.310;17.016;2023-02-03T00:53:03;27.30;20.80
65072;DHT22;51663;52.310;17.016;2023-02-03T00:56:05;27.20;20.90
65072;DHT22;51663;52.310;17.016;2023-02-03T00:59:13;27.40;20.70
65072;DHT22;51663;52.310;17.016;2023-02-03T01:02:16;27.40;20.70
65072;DHT22;51663;52.310;17.016;2023-02-03T01:05:18;27.30;20.80
65072;DHT22;51663;52.310;17.016;2023-02-03T01:08:20;27.20;20.70
65072;DHT22;51663;52.310;17.016;2023-02-03T01:11:26;27.30;20.80
65072;DHT22;51663;52.310;17.016;2023-02-03T01:14:29;27.30;20.80
65072;DHT22;51663;52.310;17.016;2023-02-03T01:17:32;27.50;20.80
65072;DHT22;51663;52.310;17.016;2023-02-03T01:20:34;27.40;20.70
65072;DHT22;51663;52.310;17.016;2023-02-03T01:23:37;27.40;20.80
65072;DHT22;51663;52.310;17.016;2023-02-03T01:26:39;27.40;20.70
65072;DHT22;51663;52.310;17.016;2023-02-03T01:29:42;27.50;20.60
65072;DHT22;51663;52.310;17.016;2023-02-03T01:32:44;27.50;20.70
65072;DHT22;51663;52.310;17.016;2023-02-03T01:35:46;27.50;20.80
65072;DHT22;51663;52.310;17.016;2023-02-03T01:38:48;27.60;20.70
65072;DHT22;51663;52.310;17.016;2023-02-03T01:41:53;27.60;20.60
65072;DHT22;51663;52.310;17.016;2023-02-03T01:44:55;27.60;20.40
65072;DHT22;51663;52.310;17.016;2023-02-03T01:47:59;27.60;20.60
65072;DHT22;51663;52.310;17.016;2023-02-03T01:51:03;27.50;20.50
65072;DHT22;51663;52.310;17.016;2023-02-03T01:54:09;27.70;20.50
65072;DHT22;51663;52.310;17.016;2023-02-03T01:57:17;27.70;20.40
65072;DHT22;51663;52.310;17.016;2023-02-03T02:00:20;27.80;20.40
65072;DHT22;51663;52.310;17.016;2023-02-03T02:03:33;27.90;20.40
65072;DHT22;51663;52.310;17.016;2023-02-03T02:06:37;27.80;20.30
65072;DHT22;51663;52.310;17.016;2023-02-03T02:09:39;27.80;20.40
65072;DHT22;51663;52.310;17.016;2023-02-03T02:12:42;27.40;20.40
65072;DHT22;51663;52.310;17.016;2023-02-03T02:15:57;27.20;20.70
65072;DHT22;51663;52.310;17.016;2023-02-03T02:36:42;27.50;20.90
65072;DHT22;51663;52.310;17.016;2023-02-03T02:40:20;27.60;20.90
65072;DHT22;51663;52.310;17.016;2023-02-03T02:43:41;27.00;20.90
65072;DHT22;51663;52.310;17.016;2023-02-03T02:46:47;27.10;21.30
65072;DHT22;51663;52.310;17.016;2023-02-03T02:49:54;26.90;21.20
65072;DHT22;51663;52.310;17.016;2023-02-03T02:53:00;26.70;21.30
65072;DHT22;51663;52.310;17.016;2023-02-03T02:56:05;26.70;21.40
65072;DHT22;51663;52.310;17.016;2023-02-03T02:59:08;27.00;21.40
65072;DHT22;51663;52.310;17.016;2023-02-03T03:02:10;27.10;21.20
65072;DHT22;51663;52.310;17.016;2023-02-03T03:05:13;27.20;21.10
65072;DHT22;51663;52.310;17.016;2023-02-03T03:08:21;27.40;21.20
65072;DHT22;51663;52.310;17.016;2023-02-03T03:11:26;27.40;21.10
65072;DHT22;51663;52.310;17.016;2023-02-03T03:14:30;27.50;21.00
65072;DHT22;51663;52.310;17.016;2023-02-03T03:17:42;27.40;21.10
65072;DHT22;51663;52.310;17.016;2023-02-03T03:20:47;27.40;21.10
65072;DHT22;51663;52.310;17.016;2023-02-03T03:23:53;27.40;21.10
65072;DHT22;51663;52.310;17.016;2023-02-03T03:27:00;27.30;21.00
65072;DHT22;51663;52.310;17.016;2023-02-03T03:30:33;27.40;21.10
65072;DHT22;51663;52.310;17.016;2023-02-03T03:33:36;27.40;21.30
65072;DHT22;51663;52.310;17.016;2023-02-03T03:39:56;27.20;21.10
65072;DHT22;51663;52.310;17.016;2023-02-03T03:43:09;27.40;21.10
65072;DHT22;51663;52.310;17.016;2023-02-03T03:46:14;27.30;21.00
65072;DHT22;51663;52.310;17.016;2023-02-03T03:49:19;27.30;21.20
65072;DHT22;51663;52.310;17.016;2023-02-03T03:52:28;27.20;21.20
65072;DHT22;51663;52.310;17.016;2023-02-03T03:55:33;27.10;21.30
65072;DHT22;51663;52.310;17.016;2023-02-03T03:58:37;26.60;21.20
65072;DHT22;51663;52.310;17.016;2023-02-03T04:01:41;26.70;21.50
65072;DHT22;51663;52.310;17.016;2023-02-03T04:04:44;26.80;21.50
65072;DHT22;51663;52.310;17.016;2023-02-03T04:07:47;26.60;21.60
65072;DHT22;51663;52.310;17.016;2023-02-03T04:10:49;26.70;21.60
65072;DHT22;51663;52.310;17.016;2023-02-03T04:13:52;27.00;21.60
65072;DHT22;51663;52.310;17.016;2023-02-03T04:16:54;26.80;21.50
65072;DHT22;51663;52.310;17.016;2023-02-03T04:19:57;27.00;21.60
65072;DHT22;51663;52.310;17.016;2023-02-03T04:22:59;26.80;21.50
65072;DHT22;51663;52.310;17.016;2023-02-03T04:26:01;26.80;21.40
65072;DHT22;51663;52.310;17.016;2023-02-03T04:29:03;26.90;21.40
65072;DHT22;51663;52.310;17.016;2023-02-03T04:32:06;27.30;21.30
65072;DHT22;51663;52.310;17.016;2023-02-03T04:35:08;27.20;21.20
65072;DHT22;51663;52.310;17.016;2023-02-03T04:38:11;27.40;21.20
65072;DHT22;51663;52.310;17.016;2023-02-03T04:41:13;27.50;21.30
65072;DHT22;51663;52.310;17.016;2023-02-03T04:44:18;27.30;21.10
65072;DHT22;51663;52.310;17.016;2023-02-03T04:47:20;27.40;21.20
65072;DHT22;51663;52.310;17.016;2023-02-03T04:50:22;27.20;21.30
65072;DHT22;51663;52.310;17.016;2023-02-03T04:53:24;27.40;21.20
65072;DHT22;51663;52.310;17.016;2023-02-03T04:56:26;27.30;21.30
65072;DHT22;51663;52.310;17.016;2023-02-03T04:59:29;27.00;21.30
65072;DHT22;51663;52.310;17.016;2023-02-03T05:02:31;27.00;21.40
65072;DHT22;51663;52.310;17.016;2023-02-03T05:05:33;26.90;21.40
65072;DHT22;51663;52.310;17.016;2023-02-03T05:08:35;27.00;21.60
65072;DHT22;51663;52.310;17.016;2023-02-03T05:11:37;26.80;21.80
65072;DHT22;51663;52.310;17.016;2023-02-03T05:14:40;26.50;21.70
65072;DHT22;51663;52.310;17.016;2023-02-03T05:17:42;26.30;22.00
65072;DHT22;51663;52.310;17.016;2023-02-03T05:20:44;26.30;22.40
65072;DHT22;51663;52.310;17.016;2023-02-03T05:23:49;26.30;22.30
65072;DHT22;51663;52.310;17.016;2023-02-03T05:26:51;26.40;22.30
65072;DHT22;51663;52.310;17.016;2023-02-03T05:29:53;25.80;22.70
65072;DHT22;51663;52.310;17.016;2023-02-03T05:32:56;25.80;23.00
65072;DHT22;51663;52.310;17.016;2023-02-03T05:35:58;26.60;22.70
65072;DHT22;51663;52.310;17.016;2023-02-03T05:39:02;27.00;22.50
65072;DHT22;51663;52.310;17.016;2023-02-03T05:42:05;26.50;22.40
65072;DHT22;51663;52.310;17.016;2023-02-03T05:45:07;26.70;22.40
65072;DHT22;51663;52.310;17.016;2023-02-03T05:48:09;27.30;22.60
65072;DHT22;51663;52.310;17.016;2023-02-03T05:51:12;27.00;22.50
65072;DHT22;51663;52.310;17.016;2023-02-03T05:54:14;27.40;22.70
65072;DHT22;51663;52.310;17.016;2023-02-03T05:57:17;27.30;22.50
65072;DHT22;51663;52.310;17.016;2023-02-03T06:00:20;27.40;22.70
65072;DHT22;51663;52.310;17.016;2023-02-03T06:03:23;27.70;22.60
65072;DHT22;51663;52.310;17.016;2023-02-03T06:06:26;27.60;22.60
65072;DHT22;51663;52.310;17.016;2023-02-03T06:09:34;27.10;22.70
65072;DHT22;51663;52.310;17.016;2023-02-03T06:12:37;27.40;22.90
65072;DHT22;51663;52.310;17.016;2023-02-03T06:15:39;27.20;22.80
65072;DHT22;51663;52.310;17.016;2023-02-03T06:18:41;27.30;23.10
65072;DHT22;51663;52.310;17.016;2023-02-03T06:21:44;26.90;23.30
65072;DHT22;51663;52.310;17.016;2023-02-03T06:24:46;27.40;23.20
65072;DHT22;51663;52.310;17.016;2023-02-03T06:27:50;27.50;23.10
65072;DHT22;51663;52.310;17.016;2023-02-03T06:30:52;26.60;23.10
65072;DHT22;51663;52.310;17.016;2023-02-03T06:33:55;27.20;23.60
65072;DHT22;51663;52.310;17.016;2023-02-03T06:36:58;27.20;23.30
65072;DHT22;51663;52.310;17.016;2023-02-03T06:40:01;27.40;23.30
65072;DHT22;51663;52.310;17.016;2023-02-03T06:43:05;27.10;23.50
65072;DHT22;51663;52.310;17.016;2023-02-03T06:46:07;27.30;23.50
65072;DHT22;51663;52.310;17.016;2023-02-03T06:49:09;27.60;23.40
65072;DHT22;51663;52.310;17.016;2023-02-03T06:52:12;27.10;23.40
65072;DHT22;51663;52.310;17.016;2023-02-03T06:55:15;27.00;23.50
65072;DHT22;51663;52.310;17.016;2023-02-03T06:58:17;26.80;24.10
65072;DHT22;51663;52.310;17.016;2023-02-03T07:01:19;26.40;24.10
65072;DHT22;51663;52.310;17.016;2023-02-03T07:04:22;26.10;24.50
65072;DHT22;51663;52.310;17.016;2023-02-03T07:07:24;26.30;24.40
65072;DHT22;51663;52.310;17.016;2023-02-03T07:10:26;26.20;24.60
65072;DHT22;51663;52.310;17.016;2023-02-03T07:13:29;25.70;24.80
65072;DHT22;51663;52.310;17.016;2023-02-03T07:16:31;25.60;24.80
65072;DHT22;51663;52.310;17.016;2023-02-03T07:19:35;25.30;25.00
65072;DHT22;51663;52.310;17.016;2023-02-03T07:22:37;25.70;25.00
65072;DHT22;51663;52.310;17.016;2023-02-03T07:25:41;24.70;25.40
65072;DHT22;51663;52.310;17.016;2023-02-03T07:28:44;24.80;25.60
65072;DHT22;51663;52.310;17.016;2023-02-03T07:31:46;24.40;26.10
65072;DHT22;51663;52.310;17.016;2023-02-03T07:34:48;24.50;26.40
65072;DHT22;51663;52.310;17.016;2023-02-03T07:37:50;24.70;26.20
65072;DHT22;51663;52.310;17.016;2023-02-03T07:40:53;24.60;26.00
65072;DHT22;51663;52.310;17.016;2023-02-03T07:43:55;24.70;25.70
65072;DHT22;51663;52.310;17.016;2023-02-03T07:46:58;25.00;25.80
65072;DHT22;51663;52.310;17.016;2023-02-03T07:50:00;25.40;25.40
65072;DHT22;51663;52.310;17.016;2023-02-03T07:53:03;25.50;25.30
65072;DHT22;51663;52.310;17.016;2023-02-03T07:56:05;24.70;25.50
65072;DHT22;51663;52.310;17.016;2023-02-03T07:59:10;25.20;25.70
65072;DHT22;51663;52.310;17.016;2023-02-03T08:02:12;24.70;26.00
65072;DHT22;51663;52.310;17.016;2023-02-03T08:05:15;24.10;26.70
65072;DHT22;51663;52.310;17.016;2023-02-03T08:08:17;23.70;26.70
65072;DHT22;51663;52.310;17.016;2023-02-03T08:11:19;24.00;27.30
65072;DHT22;51663;52.310;17.016;2023-02-03T08:14:21;23.00;27.40
65072;DHT22;51663;52.310;17.016;2023-02-03T08:17:25;23.40;27.50
65072;DHT22;51663;52.310;17.016;2023-02-03T08:20:27;23.70;27.10
65072;DHT22;51663;52.310;17.016;2023-02-03T08:23:30;23.40;27.70
65072;DHT22;51663;52.310;17.016;2023-02-03T08:26:34;23.00;28.20
65072;DHT22;51663;52.310;17.016;2023-02-03T08:29:43;23.00;27.80
65072;DHT22;51663;52.310;17.016;2023-02-03T08:32:46;23.50;27.50
65072;DHT22;51663;52.310;17.016;2023-02-03T08:36:13;23.70;27.60
65072;DHT22;51663;52.310;17.016;2023-02-03T08:39:22;22.90;28.00
65072;DHT22;51663;52.310;17.016;2023-02-03T08:42:25;23.40;27.90
65072;DHT22;51663;52.310;17.016;2023-02-03T08:45:28;22.80;27.80
65072;DHT22;51663;52.310;17.016;2023-02-03T08:48:31;22.80;28.30
65072;DHT22;51663;52.310;17.016;2023-02-03T08:51:34;21.50;29.60
65072;DHT22;51663;52.310;17.016;2023-02-03T08:54:37;21.90;29.60
65072;DHT22;51663;52.310;17.016;2023-02-03T08:57:42;21.40;30.20
65072;DHT22;51663;52.310;17.016;2023-02-03T09:00:44;22.10;29.80
65072;DHT22;51663;52.310;17.016;2023-02-03T09:03:51;22.30;29.50
65072;DHT22;51663;52.310;17.016;2023-02-03T09:06:53;21.50;30.40
65072;DHT22;51663;52.310;17.016;2023-02-03T09:09:56;20.40;32.00
65072;DHT22;51663;52.310;17.016;2023-02-03T09:12:58;20.10;32.80
65072;DHT22;51663;52.310;17.016;2023-02-03T09:16:00;19.70;33.50
65072;DHT22;51663;52.310;17.016;2023-02-03T09:19:02;21.00;32.90
65072;DHT22;51663;52.310;17.016;2023-02-03T09:22:04;23.20;29.50
65072;DHT22;51663;52.310;17.016;2023-02-03T09:25:07;23.80;28.00
65072;DHT22;51663;52.310;17.016;2023-02-03T09:28:09;24.50;27.60
65072;DHT22;51663;52.310;17.016;2023-02-03T09:31:15;26.30;26.00
65072;DHT22;51663;52.310;17.016;2023-02-03T09:34:21;26.70;25.20
65072;DHT22;51663;52.310;17.016;2023-02-03T09:37:27;26.70;25.00
65072;DHT22;51663;52.310;17.016;2023-02-03T09:40:33;25.80;25.50
65072;DHT22;51663;52.310;17.016;2023-02-03T09:46:58;24.60;26.40
65072;DHT22;51663;52.310;17.016;2023-02-03T09:50:04;25.00;26.40
65072;DHT22;51663;52.310;17.016;2023-02-03T09:53:27;24.80;26.60
65072;DHT22;51663;52.310;17.016;2023-02-03T09:56:33;24.80;26.50
65072;DHT22;51663;52.310;17.016;2023-02-03T09:59:36;25.10;26.80
65072;DHT22;51663;52.310;17.016;2023-02-03T10:06:15;25.10;26.60
65072;DHT22;51663;52.310;17.016;2023-02-03T10:15:56;25.30;26.20
65072;DHT22;51663;52.310;17.016;2023-02-03T10:19:14;24.40;27.30
65072;DHT22;51663;52.310;17.016;2023-02-03T10:22:22;24.40;26.70
65072;DHT22;51663;52.310;17.016;2023-02-03T10:25:34;24.60;27.80
65072;DHT22;51663;52.310;17.016;2023-02-03T10:28:50;24.60;27.30
65072;DHT22;51663;52.310;17.016;2023-02-03T10:31:54;24.60;27.00
65072;DHT22;51663;52.310;17.016;2023-02-03T10:35:00;24.90;27.20
65072;DHT22;51663;52.310;17.016;2023-02-03T10:38:04;24.70;27.50
65072;DHT22;51663;52.310;17.016;2023-02-03T10:41:11;24.10;28.40
65072;DHT22;51663;52.310;17.016;2023-02-03T10:44:14;23.70;28.80
65072;DHT22;51663;52.310;17.016;2023-02-03T10:50:37;24.80;28.10
65072;DHT22;51663;52.310;17.016;2023-02-03T10:53:46;25.60;27.50
65072;DHT22;51663;52.310;17.016;2023-02-03T10:56:48;26.20;26.80
65072;DHT22;51663;52.310;17.016;2023-02-03T10:59:51;26.20;26.60
65072;DHT22;51663;52.310;17.016;2023-02-03T11:03:27;26.50;26.30
65072;DHT22;51663;52.310;17.016;2023-02-03T11:06:32;25.40;26.90
65072;DHT22;51663;52.310;17.016;2023-02-03T11:09:37;25.40;27.10
65072;DHT22;51663;52.310;17.016;2023-02-03T11:12:40;24.90;27.90
65072;DHT22;51663;52.310;17.016;2023-02-03T11:22:00;25.30;27.80
65072;DHT22;51663;52.310;17.016;2023-02-03T11:25:04;25.10;27.90
65072;DHT22;51663;52.310;17.016;2023-02-03T11:28:17;25.10;28.20
65072;DHT22;51663;52.310;17.016;2023-02-03T11:31:23;25.70;27.90
65072;DHT22;51663;52.310;17.016;2023-02-03T11:34:36;25.40;28.30
65072;DHT22;51663;52.310;17.016;2023-02-03T11:37:41;24.50;29.70
65072;DHT22;51663;52.310;17.016;2023-02-03T11:40:43;24.00;30.00
65072;DHT22;51663;52.310;17.016;2023-02-03T11:43:46;25.40;29.50
65072;DHT22;51663;52.310;17.016;2023-02-03T11:46:54;25.90;28.90
65072;DHT22;51663;52.310;17.016;2023-02-03T11:50:10;25.50;29.40
65072;DHT22;51663;52.310;17.016;2023-02-03T12:16:41;28.50;27.10
65072;DHT22;51663;52.310;17.016;2023-02-03T12:23:12;29.40;26.60
65072;DHT22;51663;52.310;17.016;2023-02-03T12:26:28;29.70;26.30
65072;DHT22;51663;52.310;17.016;2023-02-03T12:29:40;29.20;26.60
65072;DHT22;51663;52.310;17.016;2023-02-03T12:32:54;29.40;26.90
65072;DHT22;51663;52.310;17.016;2023-02-03T12:36:08;29.30;27.10
65072;DHT22;51663;52.310;17.016;2023-02-03T12:39:29;29.40;27.10
65072;DHT22;51663;52.310;17.016;2023-02-03T12:42:46;29.30;27.40
65072;DHT22;51663;52.310;17.016;2023-02-03T12:45:54;29.40;27.20
65072;DHT22;51663;52.310;17.016;2023-02-03T12:49:08;29.50;27.40
65072;DHT22;51663;52.310;17.016;2023-02-03T12:52:22;29.70;27.20
65072;DHT22;51663;52.310;17.016;2023-02-03T12:55:34;29.40;27.60
65072;DHT22;51663;52.310;17.016;2023-02-03T12:58:49;29.40;27.70
65072;DHT22;51663;52.310;17.016;2023-02-03T13:01:58;29.70;27.30
65072;DHT22;51663;52.310;17.016;2023-02-03T13:05:13;29.40;27.50
65072;DHT22;51663;52.310;17.016;2023-02-03T13:12:07;29.10;27.60
65072;DHT22;51663;52.310;17.016;2023-02-03T13:15:39;28.70;28.20
65072;DHT22;51663;52.310;17.016;2023-02-03T13:18:49;29.00;28.00
65072;DHT22;51663;52.310;17.016;2023-02-03T13:21:54;27.50;28.80
65072;DHT22;51663;52.310;17.016;2023-02-03T13:25:42;26.30;30.00
65072;DHT22;51663;52.310;17.016;2023-02-03T13:35:16;26.10;30.00
65072;DHT22;51663;52.310;17.016;2023-02-03T13:45:33;26.40;30.20
65072;DHT22;51663;52.310;17.016;2023-02-03T13:48:38;25.80;30.60
65072;DHT22;51663;52.310;17.016;2023-02-03T13:51:45;26.00;30.50
65072;DHT22;51663;52.310;17.016;2023-02-03T13:54:48;25.40;30.80
65072;DHT22;51663;52.310;17.016;2023-02-03T13:57:50;24.70;31.90
65072;DHT22;51663;52.310;17.016;2023-02-03T14:03:57;24.60;31.60
65072;DHT22;51663;52.310;17.016;2023-02-03T14:07:01;23.90;33.10
65072;DHT22;51663;52.310;17.016;2023-02-03T14:13:19;23.10;33.50
65072;DHT22;51663;52.310;17.016;2023-02-03T14:16:23;23.90;32.70
65072;DHT22;51663;52.310;17.016;2023-02-03T14:22:31;23.70;32.40
65072;DHT22;51663;52.310;17.016;2023-02-03T14:28:45;24.30;31.00
65072;DHT22;51663;52.310;17.016;2023-02-03T14:34:55;24.80;30.30
65072;DHT22;51663;52.310;17.016;2023-02-03T14:38:02;25.40;29.40
65072;DHT22;51663;52.310;17.016;2023-02-03T14:41:05;25.90;28.70
65072;DHT22;51663;52.310;17.016;2023-02-03T14:44:34;26.70;27.80
65072;DHT22;51663;52.310;17.016;2023-02-03T14:58:02;27.30;27.60
65072;DHT22;51663;52.310;17.016;2023-02-03T15:01:04;27.10;27.70
65072;DHT22;51663;52.310;17.016;2023-02-03T15:07:37;27.90;27.10
65072;DHT22;51663;52.310;17.016;2023-02-03T15:10:41;27.70;27.20
65072;DHT22;51663;52.310;17.016;2023-02-03T15:13:44;28.40;26.90
65072;DHT22;51663;52.310;17.016;2023-02-03T15:17:20;28.90;26.40
65072;DHT22;51663;52.310;17.016;2023-02-03T15:23:40;29.50;25.60
65072;DHT22;51663;52.310;17.016;2023-02-03T15:26:46;29.20;25.50
65072;DHT22;51663;52.310;17.016;2023-02-03T15:29:49;29.60;25.50
65072;DHT22;51663;52.310;17.016;2023-02-03T15:33:00;29.70;25.40
65072;DHT22;51663;52.310;17.016;2023-02-03T15:36:08;29.50;25.30
65072;DHT22;51663;52.310;17.016;2023-02-03T15:46:31;29.50;25.30
65072;DHT22;51663;52.310;17.016;2023-02-03T15:49:39;30.00;25.10
65072;DHT22;51663;52.310;17.016;2023-02-03T15:52:46;30.00;25.00
65072;DHT22;51663;52.310;17.016;2023-02-03T15:56:00;29.40;25.30
65072;DHT22;51663;52.310;17.016;2023-02-03T15:59:29;29.30;25.70
65072;DHT22;51663;52.310;17.016;2023-02-03T16:02:51;28.70;26.10
65072;DHT22;51663;52.310;17.016;2023-02-03T16:05:53;28.00;26.80
65072;DHT22;51663;52.310;17.016;2023-02-03T16:08:57;27.80;27.00
65072;DHT22;51663;52.310;17.016;2023-02-03T16:15:23;27.80;27.20
65072;DHT22;51663;52.310;17.016;2023-02-03T16:18:27;28.40;26.60
65072;DHT22;51663;52.310;17.016;2023-02-03T16:24:36;28.70;26.50
65072;DHT22;51663;52.310;17.016;2023-02-03T16:27:39;28.40;26.50
65072;DHT22;51663;52.310;17.016;2023-02-03T16:34:17;29.20;26.10
65072;DHT22;51663;52.310;17.016;2023-02-03T16:37:43;29.20;26.20
65072;DHT22;51663;52.310;17.016;2023-02-03T16:41:14;29.20;26.20
65072;DHT22;51663;52.310;17.016;2023-02-03T16:44:35;29.00;26.30
65072;DHT22;51663;52.310;17.016;2023-02-03T16:47:56;28.80;26.50
65072;DHT22;51663;52.310;17.016;2023-02-03T16:51:17;28.40;26.90
65072;DHT22;51663;52.310;17.016;2023-02-03T16:54:19;27.30;27.50
65072;DHT22;51663;52.310;17.016;2023-02-03T16:57:21;27.80;27.60
65072;DHT22;51663;52.310;17.016;2023-02-03T17:00:24;27.40;27.70
65072;DHT22;51663;52.310;17.016;2023-02-03T17:03:27;27.40;27.90
65072;DHT22;51663;52.310;17.016;2023-02-03T17:06:35;26.90;28.50
65072;DHT22;51663;52.310;17.016;2023-02-03T17:09:38;26.80;29.00
65072;DHT22;51663;52.310;17.016;2023-02-03T17:12:45;27.50;28.20
65072;DHT22;51663;52.310;17.016;2023-02-03T17:15:51;27.50;28.00
65072;DHT22;51663;52.310;17.016;2023-02-03T17:18:54;27.60;28.30
65072;DHT22;51663;52.310;17.016;2023-02-03T17:21:56;27.30;28.60
65072;DHT22;51663;52.310;17.016;2023-02-03T17:24:59;26.70;28.60
65072;DHT22;51663;52.310;17.016;2023-02-03T17:28:02;26.60;29.10
65072;DHT22;51663;52.310;17.016;2023-02-03T17:31:06;27.20;28.50
65072;DHT22;51663;52.310;17.016;2023-02-03T17:34:08;27.90;27.90
65072;DHT22;51663;52.310;17.016;2023-02-03T17:37:11;27.60;27.80
65072;DHT22;51663;52.310;17.016;2023-02-03T17:40:13;27.40;28.20
65072;DHT22;51663;52.310;17.016;2023-02-03T17:43:32;27.50;27.70
65072;DHT22;51663;52.310;17.016;2023-02-03T17:47:02;27.90;27.70
65072;DHT22;51663;52.310;17.016;2023-02-03T17:50:22;27.80;27.70
65072;DHT22;51663;52.310;17.016;2023-02-03T17:57:37;27.30;28.10
65072;DHT22;51663;52.310;17.016;2023-02-03T18:00:39;27.70;27.80
65072;DHT22;51663;52.310;17.016;2023-02-03T18:03:52;27.00;28.20
65072;DHT22;51663;52.310;17.016;2023-02-03T18:06:59;26.80;28.80
65072;DHT22;51663;52.310;17.016;2023-02-03T18:10:03;26.70;28.70
65072;DHT22;51663;52.310;17.016;2023-02-03T18:13:05;26.80;28.70
65072;DHT22;51663;52.310;17.016;2023-02-03T18:16:10;27.30;28.30
65072;DHT22;51663;52.310;17.016;2023-02-03T18:19:15;27.60;28.00
65072;DHT22;51663;52.310;17.016;2023-02-03T18:22:17;28.00;27.90
65072;DHT22;51663;52.310;17.016;2023-02-03T18:25:19;27.60;27.80
65072;DHT22;51663;52.310;17.016;2023-02-03T18:28:22;28.10;27.90
65072;DHT22;51663;52.310;17.016;2023-02-03T18:31:24;28.50;27.40
65072;DHT22;51663;52.310;17.016;2023-02-03T18:34:27;27.80;28.00
65072;DHT22;51663;52.310;17.016;2023-02-03T18:37:29;27.30;28.60
65072;DHT22;51663;52.310;17.016;2023-02-03T18:40:31;27.90;28.30
65072;DHT22;51663;52.310;17.016;2023-02-03T18:43:34;27.60;28.30
65072;DHT22;51663;52.310;17.016;2023-02-03T18:46:37;28.30;27.90
65072;DHT22;51663;52.310;17.016;2023-02-03T18:49:39;28.70;27.40
65072;DHT22;51663;52.310;17.016;2023-02-03T18:52:42;28.50;27.40
65072;DHT22;51663;52.310;17.016;2023-02-03T18:55:48;28.60;27.40
65072;DHT22;51663;52.310;17.016;2023-02-03T18:58:51;28.70;27.60
65072;DHT22;51663;52.310;17.016;2023-02-03T19:01:53;28.90;27.30
65072;DHT22;51663;52.310;17.016;2023-02-03T19:04:56;28.50;27.70
65072;DHT22;51663;52.310;17.016;2023-02-03T19:07:58;28.40;27.90
65072;DHT22;51663;52.310;17.016;2023-02-03T19:11:00;28.80;27.60
65072;DHT22;51663;52.310;17.016;2023-02-03T19:14:05;29.10;27.20
65072;DHT22;51663;52.310;17.016;2023-02-03T19:17:07;29.20;26.90
65072;DHT22;51663;52.310;17.016;2023-02-03T19:20:12;29.20;27.20
65072;DHT22;51663;52.310;17.016;2023-02-03T19:23:15;29.50;26.80
65072;DHT22;51663;52.310;17.016;2023-02-03T19:26:17;29.40;26.80
65072;DHT22;51663;52.310;17.016;2023-02-03T19:29:19;29.60;26.60
65072;DHT22;51663;52.310;17.016;2023-02-03T19:32:21;29.60;27.00
65072;DHT22;51663;52.310;17.016;2023-02-03T19:35:24;29.50;26.60
65072;DHT22;51663;52.310;17.016;2023-02-03T19:38:26;29.30;26.60
65072;DHT22;51663;52.310;17.016;2023-02-03T19:41:29;28.90;27.20
65072;DHT22;51663;52.310;17.016;2023-02-03T19:44:31;29.30;26.80
65072;DHT22;51663;52.310;17.016;2023-02-03T19:47:34;29.40;26.60
65072;DHT22;51663;52.310;17.016;2023-02-03T19:50:36;28.60;26.90
65072;DHT22;51663;52.310;17.016;2023-02-03T19:53:39;28.50;27.20
65072;DHT22;51663;52.310;17.016;2023-02-03T19:56:42;28.30;27.50
65072;DHT22;51663;52.310;17.016;2023-02-03T19:59:47;28.60;27.50
65072;DHT22;51663;52.310;17.016;2023-02-03T20:02:49;27.90;27.50
65072;DHT22;51663;52.310;17.016;2023-02-03T20:05:51;28.50;27.80
65072;DHT22;51663;52.310;17.016;2023-02-03T20:08:54;28.70;27.30
65072;DHT22;51663;52.310;17.016;2023-02-03T20:12:02;25.90;29.00
65072;DHT22;51663;52.310;17.016;2023-02-03T20:15:05;23.50;34.00
65072;DHT22;51663;52.310;17.016;2023-02-03T20:18:07;21.60;37.00
65072;DHT22;51663;52.310;17.016;2023-02-03T20:21:10;20.10;40.80
65072;DHT22;51663;52.310;17.016;2023-02-03T20:24:15;21.30;38.50
65072;DHT22;51663;52.310;17.016;2023-02-03T20:27:17;21.60;38.00
65072;DHT22;51663;52.310;17.016;2023-02-03T20:30:21;21.80;37.90
65072;DHT22;51663;52.310;17.016;2023-02-03T20:33:29;21.50;37.60
65072;DHT22;51663;52.310;17.016;2023-02-03T20:36:32;22.10;37.20
65072;DHT22;51663;52.310;17.016;2023-02-03T20:39:37;23.40;35.40
65072;DHT22;51663;52.310;17.016;2023-02-03T20:42:39;25.20;32.20
65072;DHT22;51663;52.310;17.016;2023-02-03T20:45:42;26.10;30.50
65072;DHT22;51663;52.310;17.016;2023-02-03T20:53:37;26.30;29.90
65072;DHT22;51663;52.310;17.016;2023-02-03T21:00:53;24.90;30.60
65072;DHT22;51663;52.310;17.016;2023-02-03T21:04:01;24.50;31.00
65072;DHT22;51663;52.310;17.016;2023-02-03T21:07:21;24.10;31.10
65072;DHT22;51663;52.310;17.016;2023-02-03T21:10:25;24.60;31.10
65072;DHT22;51663;52.310;17.016;2023-02-03T21:13:28;24.40;30.50
65072;DHT22;51663;52.310;17.016;2023-02-03T21:16:36;23.60;31.70
65072;DHT22;51663;52.310;17.016;2023-02-03T21:19:43;23.20;32.30
65072;DHT22;51663;52.310;17.016;2023-02-03T21:22:45;22.70;33.10
65072;DHT22;51663;52.310;17.016;2023-02-03T21:25:47;23.40;32.40
65072;DHT22;51663;52.310;17.016;2023-02-03T21:28:52;22.60;32.80
65072;DHT22;51663;52.310;17.016;2023-02-03T21:32:00;23.10;32.40
65072;DHT22;51663;52.310;17.016;2023-02-03T21:38:58;24.00;30.20
65072;DHT22;51663;52.310;17.016;2023-02-03T21:42:33;24.40;29.50
65072;DHT22;51663;52.310;17.016;2023-02-03T21:45:44;23.60;30.10
65072;DHT22;51663;52.310;17.016;2023-02-03T21:49:00;23.50;30.40